Time;durP1;ratioP1;P1;durP2;ratioP2;P2;SDS_P1;SDS_P2;PMS_P1;PMS_P2;Temp;Humidity;BMP_temperature;BMP_pressure;BME280_temperature;BME280_humidity;BME280_pressure;Samples;Min_cycle;Max_cycle;Signal;HPM_P1;HPM_P2
2023/06/29 00:02:10;;;;;;;5.30;2.40;;;;;;;;;;5073674;28;20273;-36
2023/06/29 00:04:36;;;;;;;4.32;1.95;;;;;;;;;;5067327;28;20332;-35
2023/06/29 00:07:02;;;;;;;4.55;1.70;;;;;;;;;;5066538;28;20017;-37
2023/06/29 00:09:28;;;;;;;7.45;2.40;;;;;;;;;;5065207;28;20049;-36
2023/06/29 00:11:54;;;;;;;2.75;1.73;;;;;;;;;;5064448;28;20457;-36
2023/06/29 00:14:19;;;;;;;4.30;1.83;;;;;;;;;;5070627;28;20251;-37
2023/06/29 00:16:44;;;;;;;6.30;1.80;;;;;;;;;;5064526;28;20091;-36
2023/06/29 00:19:11;;;;;;;4.95;1.83;;;;;;;;;;5067271;28;20293;-36
2023/06/29 00:21:36;;;;;;;8.80;2.28;;;;;;;;;;5066673;28;20033;-36
2023/06/29 00:24:02;;;;;;;3.60;1.57;;;;;;;;;;5066771;28;20071;-35
2023/06/29 00:26:28;;;;;;;5.03;1.88;;;;;;;;;;5070014;28;20029;-36
2023/06/29 00:28:54;;;;;;;5.68;2.30;;;;;;;;;;5069672;28;20025;-35
2023/06/29 00:31:22;;;;;;;3.53;2.03;;;;;;;;;;5073488;28;20679;-36
2023/06/29 00:33:47;;;;;;;3.33;1.80;;;;;;;;;;5066735;28;20028;-36
2023/06/29 00:36:12;;;;;;;4.15;2.00;;;;;;;;;;5071570;28;20017;-35
2023/06/29 00:38:38;;;;;;;4.60;2.40;;;;;;;;;;5067048;28;20040;-36
2023/06/29 00:41:03;;;;;;;5.23;1.87;;;;;;;;;;5065426;28;20074;-35
2023/06/29 00:43:28;;;;;;;2.30;1.57;;;;;;;;;;5075223;28;20107;-34
2023/06/29 00:45:54;;;;;;;3.75;1.63;;;;;;;;;;5068515;28;20270;-36
2023/06/29 00:48:19;;;;;;;3.55;1.80;;;;;;;;;;5072101;28;20041;-36
2023/06/29 00:50:44;;;;;;;4.57;1.83;;;;;;;;;;5069685;28;20028;-34
2023/06/29 00:53:09;;;;;;;5.35;2.25;;;;;;;;;;5070043;28;20032;-36
2023/06/29 00:55:36;;;;;;;7.35;1.80;;;;;;;;;;5061124;28;20016;-35
2023/06/29 00:58:01;;;;;;;9.77;1.98;;;;;;;;;;5065335;28;20024;-35
2023/06/29 01:00:26;;;;;;;3.53;2.03;;;;;;;;;;5065034;28;20114;-36
2023/06/29 01:02:51;;;;;;;3.43;1.67;;;;;;;;;;5065661;28;20270;-36
2023/06/29 01:05:17;;;;;;;3.53;2.43;;;;;;;;;;5068465;28;20618;-36
2023/06/29 01:07:52;;;;;;;4.32;1.90;;;;;;;;;;5067642;28;20025;-36
2023/06/29 01:10:19;;;;;;;4.38;1.80;;;;;;;;;;5065878;28;20028;-35
2023/06/29 01:12:45;;;;;;;5.93;2.17;;;;;;;;;;5066531;28;20029;-35
2023/06/29 01:15:11;;;;;;;4.53;2.10;;;;;;;;;;5068233;28;20032;-36
2023/06/29 01:17:37;;;;;;;6.30;2.28;;;;;;;;;;5068444;28;20387;-35
2023/06/29 01:20:04;;;;;;;6.22;1.60;;;;;;;;;;5072977;28;20056;-35
2023/06/29 01:22:35;;;;;;;3.60;1.70;;;;;;;;;;5066493;28;20036;-35
2023/06/29 01:25:01;;;;;;;6.10;2.25;;;;;;;;;;5067981;28;20078;-36
2023/06/29 01:27:26;;;;;;;5.90;1.95;;;;;;;;;;5071019;28;20032;-36
2023/06/29 01:29:55;;;;;;;4.60;2.55;;;;;;;;;;5071273;28;20032;-37
2023/06/29 01:32:21;;;;;;;6.72;1.90;;;;;;;;;;5070402;28;20033;-35
2023/06/29 01:34:46;;;;;;;3.80;1.85;;;;;;;;;;5069850;28;20085;-35
2023/06/29 01:37:17;;;;;;;3.22;1.50;;;;;;;;;;5071122;28;20021;-36
2023/06/29 01:39:53;;;;;;;4.25;1.75;;;;;;;;;;5065092;28;20035;-35
2023/06/29 01:42:20;;;;;;;5.97;1.60;;;;;;;;;;5068148;28;20028;-35
2023/06/29 01:44:46;;;;;;;5.43;1.90;;;;;;;;;;5071088;28;20025;-36
2023/06/29 01:47:12;;;;;;;5.88;1.75;;;;;;;;;;5072404;28;20368;-35
2023/06/29 01:49:37;;;;;;;5.50;2.65;;;;;;;;;;5067746;28;20028;-35
2023/06/29 01:52:04;;;;;;;8.30;3.60;;;;;;;;;;5064894;28;20031;-37
2023/06/29 01:54:29;;;;;;;5.22;2.15;;;;;;;;;;5068883;28;20032;-36
2023/06/29 01:56:54;;;;;;;5.23;2.10;;;;;;;;;;5066711;28;20123;-35
2023/06/29 01:59:20;;;;;;;3.87;1.00;;;;;;;;;;5066960;28;20297;-36
2023/06/29 02:01:45;;;;;;;4.03;1.50;;;;;;;;;;5067001;28;20274;-37
2023/06/29 02:04:10;;;;;;;6.53;1.97;;;;;;;;;;5064659;28;20291;-36
2023/06/29 02:06:35;;;;;;;3.87;2.03;;;;;;;;;;5066602;28;20273;-35
2023/06/29 02:09:01;;;;;;;5.07;2.00;;;;;;;;;;5061433;28;20820;-36
2023/06/29 02:11:26;;;;;;;6.90;2.00;;;;;;;;;;5064852;28;20290;-36
2023/06/29 02:13:51;;;;;;;5.73;1.90;;;;;;;;;;5067024;28;21057;-36
2023/06/29 02:16:16;;;;;;;5.13;1.93;;;;;;;;;;5065045;28;20293;-36
2023/06/29 02:18:42;;;;;;;7.82;2.28;;;;;;;;;;5065667;28;20361;-35
2023/06/29 02:21:07;;;;;;;6.83;2.50;;;;;;;;;;5068697;28;20024;-36
2023/06/29 02:23:32;;;;;;;4.27;2.67;;;;;;;;;;5064644;28;20285;-35
2023/06/29 02:25:58;;;;;;;5.57;2.17;;;;;;;;;;5065792;28;20313;-36
2023/06/29 02:28:23;;;;;;;7.43;2.67;;;;;;;;;;5062887;28;20033;-35
2023/06/29 02:30:48;;;;;;;13.93;3.23;;;;;;;;;;5066022;28;20297;-36
2023/06/29 02:33:13;;;;;;;7.47;2.70;;;;;;;;;;5065078;28;20032;-36
2023/06/29 02:35:39;;;;;;;4.72;2.00;;;;;;;;;;5069746;28;20035;-35
2023/06/29 02:38:04;;;;;;;5.10;1.87;;;;;;;;;;5065195;28;20036;-36
2023/06/29 02:40:29;;;;;;;5.43;1.90;;;;;;;;;;5062773;28;20054;-35
2023/06/29 02:42:55;;;;;;;4.43;1.48;;;;;;;;;;5066552;28;20321;-36
2023/06/29 02:45:20;;;;;;;6.43;2.00;;;;;;;;;;5066803;28;20013;-36
2023/06/29 02:47:45;;;;;;;5.55;2.88;;;;;;;;;;5066053;28;20345;-36
2023/06/29 02:50:10;;;;;;;7.67;2.50;;;;;;;;;;5068490;28;20398;-36
2023/06/29 02:52:36;;;;;;;6.80;2.20;;;;;;;;;;5069078;28;20270;-36
2023/06/29 02:55:01;;;;;;;7.20;2.57;;;;;;;;;;5064957;28;20753;-36
2023/06/29 02:57:26;;;;;;;5.93;3.17;;;;;;;;;;5066582;28;20027;-36
2023/06/29 02:59:51;;;;;;;10.70;3.07;;;;;;;;;;5070829;28;20278;-35
2023/06/29 03:02:17;;;;;;;6.87;3.20;;;;;;;;;;5065980;28;20255;-35
2023/06/29 03:04:42;;;;;;;4.40;2.42;;;;;;;;;;5069413;28;20275;-35
2023/06/29 03:07:07;;;;;;;6.20;2.13;;;;;;;;;;5066360;28;20044;-36
2023/06/29 03:09:32;;;;;;;8.00;2.63;;;;;;;;;;5062761;28;20306;-35
2023/06/29 03:11:58;;;;;;;4.70;2.33;;;;;;;;;;5059613;28;20542;-36
2023/06/29 03:14:23;;;;;;;5.20;2.70;;;;;;;;;;5062572;28;20275;-36
2023/06/29 03:16:48;;;;;;;2.92;1.85;;;;;;;;;;5065003;28;20290;-35
2023/06/29 03:19:13;;;;;;;8.33;3.37;;;;;;;;;;5064710;28;20025;-36
2023/06/29 03:21:39;;;;;;;5.57;2.80;;;;;;;;;;5061617;28;20734;-36
2023/06/29 03:24:04;;;;;;;7.50;2.72;;;;;;;;;;5059659;28;20285;-36
2023/06/29 03:26:29;;;;;;;7.53;2.30;;;;;;;;;;5070426;28;20434;-36
2023/06/29 03:28:55;;;;;;;6.93;2.60;;;;;;;;;;5066351;28;20025;-36
2023/06/29 03:31:20;;;;;;;4.83;2.20;;;;;;;;;;5065674;28;20027;-36
2023/06/29 03:33:45;;;;;;;5.83;2.23;;;;;;;;;;5066523;28;20692;-36
2023/06/29 03:36:15;;;;;;;4.27;1.83;;;;;;;;;;5069306;28;20020;-36
2023/06/29 03:38:40;;;;;;;5.25;2.35;;;;;;;;;;5067871;28;20377;-36
2023/06/29 03:41:05;;;;;;;8.52;2.33;;;;;;;;;;5063742;28;20107;-35
2023/06/29 03:43:31;;;;;;;6.70;2.88;;;;;;;;;;5072135;28;20020;-37
2023/06/29 03:45:59;;;;;;;4.77;1.80;;;;;;;;;;5071270;28;20481;-36
2023/06/29 03:48:27;;;;;;;6.50;2.67;;;;;;;;;;5065829;28;20350;-36
2023/06/29 03:50:53;;;;;;;8.10;2.85;;;;;;;;;;5064090;28;20050;-35
2023/06/29 03:53:19;;;;;;;3.70;1.88;;;;;;;;;;5067878;28;20054;-36
2023/06/29 03:55:44;;;;;;;8.03;5.30;;;;;;;;;;5062478;28;20465;-35
2023/06/29 03:58:09;;;;;;;6.77;2.83;;;;;;;;;;5069032;28;20278;-36
2023/06/29 04:00:34;;;;;;;7.23;2.27;;;;;;;;;;5067480;28;20785;-35
2023/06/29 04:03:00;;;;;;;5.03;2.20;;;;;;;;;;5066593;28;20352;-36
2023/06/29 04:05:27;;;;;;;5.97;2.13;;;;;;;;;;5064914;28;20024;-37
2023/06/29 04:07:52;;;;;;;6.80;2.42;;;;;;;;;;5064849;28;20621;-36
2023/06/29 04:10:17;;;;;;;7.07;2.60;;;;;;;;;;5063286;28;20024;-36
2023/06/29 04:12:42;;;;;;;6.47;2.47;;;;;;;;;;5066526;28;20062;-34
2023/06/29 04:15:08;;;;;;;7.90;2.67;;;;;;;;;;5067436;28;20979;-36
2023/06/29 04:17:33;;;;;;;10.32;2.60;;;;;;;;;;5068339;28;20294;-35
2023/06/29 04:19:58;;;;;;;6.00;2.60;;;;;;;;;;5066981;28;20020;-37
2023/06/29 04:22:24;;;;;;;6.13;2.63;;;;;;;;;;5067519;28;20032;-36
2023/06/29 04:24:50;;;;;;;4.25;2.10;;;;;;;;;;5059049;28;20535;-35
2023/06/29 04:27:16;;;;;;;4.78;2.85;;;;;;;;;;5058318;28;20021;-36
2023/06/29 04:29:41;;;;;;;9.80;2.65;;;;;;;;;;5062633;28;20393;-36
2023/06/29 04:32:06;;;;;;;7.22;2.47;;;;;;;;;;5057386;28;20081;-36
2023/06/29 04:34:32;;;;;;;6.38;2.80;;;;;;;;;;5070650;28;20037;-36
2023/06/29 04:37:01;;;;;;;5.63;2.83;;;;;;;;;;5057861;28;20047;-34
2023/06/29 04:39:27;;;;;;;6.90;2.72;;;;;;;;;;5052818;28;20293;-36
2023/06/29 04:42:00;;;;;;;6.57;2.75;;;;;;;;;;5061333;28;20385;-36
2023/06/29 04:44:31;;;;;;;10.32;2.47;;;;;;;;;;5062869;28;20207;-36
2023/06/29 04:46:58;;;;;;;5.10;2.80;;;;;;;;;;5064137;28;20074;-34
2023/06/29 04:49:27;;;;;;;8.23;3.72;;;;;;;;;;5061736;28;20021;-34
2023/06/29 04:51:52;;;;;;;13.40;2.80;;;;;;;;;;5062297;28;20062;-33
2023/06/29 04:54:17;;;;;;;10.47;4.17;;;;;;;;;;5060663;28;20099;-35
2023/06/29 04:56:42;;;;;;;5.77;2.80;;;;;;;;;;5054776;28;20776;-34
2023/06/29 04:59:08;;;;;;;5.57;3.20;;;;;;;;;;5060490;28;20025;-34
2023/06/29 05:01:33;;;;;;;5.78;3.08;;;;;;;;;;5063429;28;20048;-34
2023/06/29 05:03:58;;;;;;;5.57;2.60;;;;;;;;;;5063543;28;20060;-34
2023/06/29 05:06:24;;;;;;;4.47;2.73;;;;;;;;;;5064971;28;20627;-35
2023/06/29 05:08:49;;;;;;;5.07;3.20;;;;;;;;;;5061663;28;20036;-34
2023/06/29 05:11:14;;;;;;;5.90;2.70;;;;;;;;;;5064863;28;20021;-34
2023/06/29 05:13:39;;;;;;;6.90;2.53;;;;;;;;;;5070357;28;20066;-34
2023/06/29 05:16:05;;;;;;;6.23;2.20;;;;;;;;;;5070699;28;20385;-34
2023/06/29 05:18:30;;;;;;;10.30;2.85;;;;;;;;;;5073630;28;20021;-34
2023/06/29 05:20:57;;;;;;;5.25;2.60;;;;;;;;;;5067833;28;20100;-36
2023/06/29 05:23:23;;;;;;;11.48;2.30;;;;;;;;;;5068443;28;20033;-35
2023/06/29 05:25:48;;;;;;;4.85;2.40;;;;;;;;;;5064889;28;20025;-35
2023/06/29 05:28:13;;;;;;;5.82;2.42;;;;;;;;;;5065611;28;20040;-33
2023/06/29 05:30:39;;;;;;;10.13;3.92;;;;;;;;;;5074354;28;20032;-36
2023/06/29 05:33:04;;;;;;;14.40;6.30;;;;;;;;;;5073946;28;20024;-34
2023/06/29 05:35:31;;;;;;;11.38;6.15;;;;;;;;;;5073879;28;20032;-35
2023/06/29 05:37:56;;;;;;;12.20;4.47;;;;;;;;;;5067235;28;20448;-35
2023/06/29 05:40:22;;;;;;;6.28;2.60;;;;;;;;;;5067936;28;20036;-34
2023/06/29 05:42:47;;;;;;;10.98;3.17;;;;;;;;;;5071720;28;20406;-35
2023/06/29 05:45:12;;;;;;;5.53;3.72;;;;;;;;;;5071467;28;21069;-35
2023/06/29 05:47:38;;;;;;;8.40;3.90;;;;;;;;;;5068656;28;20036;-35
2023/06/29 05:50:04;;;;;;;8.70;3.50;;;;;;;;;;5070331;28;20483;-35
2023/06/29 05:52:30;;;;;;;12.80;3.30;;;;;;;;;;5067350;28;20036;-35
2023/06/29 05:54:55;;;;;;;8.35;3.47;;;;;;;;;;5068116;28;20024;-35
2023/06/29 05:57:21;;;;;;;6.40;2.83;;;;;;;;;;5072783;28;20025;-35
2023/06/29 05:59:46;;;;;;;3.93;1.83;;;;;;;;;;5070279;28;20773;-35
2023/06/29 06:02:11;;;;;;;8.53;2.83;;;;;;;;;;5071158;28;20265;-35
2023/06/29 06:04:36;;;;;;;8.40;2.70;;;;;;;;;;5071344;28;20104;-36
2023/06/29 06:07:02;;;;;;;6.70;3.10;;;;;;;;;;5059853;28;20384;-36
2023/06/29 06:09:28;;;;;;;10.85;3.03;;;;;;;;;;5071360;28;20060;-36
2023/06/29 06:11:54;;;;;;;16.17;4.20;;;;;;;;;;5063379;28;20037;-36
2023/06/29 06:14:20;;;;;;;7.95;3.45;;;;;;;;;;5070064;28;20033;-36
2023/06/29 06:16:45;;;;;;;6.57;2.20;;;;;;;;;;5071277;28;20028;-36
2023/06/29 06:19:10;;;;;;;7.43;3.30;;;;;;;;;;5069723;28;20077;-36
2023/06/29 06:21:36;;;;;;;7.63;4.38;;;;;;;;;;5068615;28;20365;-35
2023/06/29 06:24:01;;;;;;;8.43;2.63;;;;;;;;;;5067498;28;20009;-36
2023/06/29 06:26:26;;;;;;;5.73;1.90;;;;;;;;;;5068663;28;20463;-35
2023/06/29 06:28:52;;;;;;;4.40;2.27;;;;;;;;;;5067728;28;20032;-36
2023/06/29 06:31:17;;;;;;;5.45;1.88;;;;;;;;;;5067159;28;20707;-35
2023/06/29 06:33:43;;;;;;;5.00;2.03;;;;;;;;;;5064908;28;20056;-35
2023/06/29 06:36:08;;;;;;;8.90;2.75;;;;;;;;;;5065292;28;20024;-34
2023/06/29 06:38:34;;;;;;;9.88;2.50;;;;;;;;;;5066746;28;20112;-36
2023/06/29 06:40:59;;;;;;;6.77;2.20;;;;;;;;;;5066167;28;20012;-36
2023/06/29 06:43:24;;;;;;;7.28;3.42;;;;;;;;;;5065966;28;20267;-37
2023/06/29 06:45:51;;;;;;;6.70;2.23;;;;;;;;;;5065709;28;20014;-36
2023/06/29 06:48:16;;;;;;;7.13;2.83;;;;;;;;;;5065803;28;20487;-36
2023/06/29 06:50:42;;;;;;;3.37;1.50;;;;;;;;;;5065090;28;20019;-35
2023/06/29 06:53:07;;;;;;;4.97;1.90;;;;;;;;;;5071421;28;20275;-35
2023/06/29 06:55:32;;;;;;;7.13;2.17;;;;;;;;;;5068027;28;20024;-34
2023/06/29 06:57:58;;;;;;;6.18;2.28;;;;;;;;;;5065659;28;20042;-35
2023/06/29 07:00:24;;;;;;;5.33;2.10;;;;;;;;;;5115954;22;20154;-36
2023/06/29 07:02:49;;;;;;;5.85;2.03;;;;;;;;;;5053577;28;20043;-36
2023/06/29 07:05:14;;;;;;;7.95;2.60;;;;;;;;;;5068577;28;20033;-37
2023/06/29 07:07:41;;;;;;;4.93;1.92;;;;;;;;;;5068029;28;20036;-37
2023/06/29 07:10:06;;;;;;;3.65;1.95;;;;;;;;;;5063213;28;20549;-37
2023/06/29 07:12:32;;;;;;;7.22;1.90;;;;;;;;;;5063040;28;20111;-35
2023/06/29 07:14:57;;;;;;;3.57;1.67;;;;;;;;;;5050884;28;20107;-37
2023/06/29 07:17:22;;;;;;;6.43;1.67;;;;;;;;;;5052308;28;20744;-37
2023/06/29 07:19:48;;;;;;;3.22;1.60;;;;;;;;;;5047961;28;20916;-36
2023/06/29 07:22:14;;;;;;;3.17;1.92;;;;;;;;;;5059202;28;20050;-37
2023/06/29 07:24:41;;;;;;;7.95;2.55;;;;;;;;;;5045817;28;20112;-36
2023/06/29 07:27:06;;;;;;;4.68;2.15;;;;;;;;;;5059287;28;20024;-36
2023/06/29 07:29:33;;;;;;;6.03;1.98;;;;;;;;;;5043943;28;20098;-37
2023/06/29 07:31:58;;;;;;;4.93;1.85;;;;;;;;;;5057783;28;20604;-37
2023/06/29 07:34:24;;;;;;;4.05;1.73;;;;;;;;;;5062772;28;20691;-38
2023/06/29 07:36:49;;;;;;;8.60;2.05;;;;;;;;;;5066489;28;20017;-37
2023/06/29 07:39:14;;;;;;;5.97;1.27;;;;;;;;;;5051824;28;20020;-37
2023/06/29 07:41:40;;;;;;;4.80;2.13;;;;;;;;;;5063592;28;20324;-37
2023/06/29 07:44:05;;;;;;;9.13;2.53;;;;;;;;;;5051446;28;20115;-37
2023/06/29 07:46:34;;;;;;;3.90;1.40;;;;;;;;;;5058080;28;20032;-37
2023/06/29 07:49:00;;;;;;;4.95;1.75;;;;;;;;;;5062377;28;20025;-37
2023/06/29 07:51:26;;;;;;;4.35;1.50;;;;;;;;;;5080663;28;20032;-36
2023/06/29 07:53:52;;;;;;;4.55;1.52;;;;;;;;;;5059638;28;20032;-36
2023/06/29 07:56:18;;;;;;;6.53;1.95;;;;;;;;;;5065139;28;20031;-36
2023/06/29 07:58:43;;;;;;;7.20;1.70;;;;;;;;;;5065065;28;20024;-35
2023/06/29 08:01:08;;;;;;;7.05;1.75;;;;;;;;;;5044343;28;20029;-37
2023/06/29 08:03:34;;;;;;;4.43;1.83;;;;;;;;;;5058502;28;20378;-36
2023/06/29 08:05:59;;;;;;;7.60;1.73;;;;;;;;;;5044208;28;20029;-37
2023/06/29 08:08:27;;;;;;;5.53;1.73;;;;;;;;;;5044834;28;20037;-37
2023/06/29 08:10:52;;;;;;;5.28;2.20;;;;;;;;;;5063413;28;20032;-37
2023/06/29 08:13:18;;;;;;;6.25;1.65;;;;;;;;;;5057434;28;20028;-37
2023/06/29 08:15:43;;;;;;;5.55;1.95;;;;;;;;;;5063929;28;20024;-38
2023/06/29 08:18:08;;;;;;;6.03;2.00;;;;;;;;;;5050962;28;20467;-37
2023/06/29 08:20:34;;;;;;;4.70;1.70;;;;;;;;;;5060000;28;20028;-37
2023/06/29 08:22:59;;;;;;;5.75;1.92;;;;;;;;;;5046836;28;20107;-37
2023/06/29 08:31:34;;;;;;;3.38;1.55;;;;;;;;;;5063866;28;20020;-37
2023/06/29 08:33:59;;;;;;;6.78;1.80;;;;;;;;;;5058754;28;20016;-36
2023/06/29 08:36:25;;;;;;;5.30;2.60;;;;;;;;;;5057771;28;20028;-38
2023/06/29 08:38:50;;;;;;;4.93;1.60;;;;;;;;;;5039778;28;20291;-37
2023/06/29 08:41:16;;;;;;;4.40;2.08;;;;;;;;;;5047166;28;20042;-37
2023/06/29 08:43:41;;;;;;;7.15;2.38;;;;;;;;;;5059956;28;20025;-36
2023/06/29 08:46:07;;;;;;;5.05;1.75;;;;;;;;;;5057727;28;20502;-38
2023/06/29 08:48:33;;;;;;;7.57;2.00;;;;;;;;;;5069613;28;20122;-37
2023/06/29 08:51:02;;;;;;;9.13;3.10;;;;;;;;;;5054395;28;20090;-35
2023/06/29 08:53:29;;;;;;;5.85;2.35;;;;;;;;;;5083501;28;20051;-35
2023/06/29 08:55:55;;;;;;;5.50;2.33;;;;;;;;;;5065418;28;20052;-37
2023/06/29 08:58:22;;;;;;;8.93;1.85;;;;;;;;;;5064523;28;20063;-38
2023/06/29 09:00:48;;;;;;;5.88;1.95;;;;;;;;;;5066557;28;20016;-35
2023/06/29 09:03:14;;;;;;;6.57;2.42;;;;;;;;;;5060386;28;20489;-35
2023/06/29 09:05:39;;;;;;;4.07;2.30;;;;;;;;;;5068736;28;20025;-34
2023/06/29 09:08:05;;;;;;;6.55;2.20;;;;;;;;;;5068660;28;20028;-36
2023/06/29 09:10:30;;;;;;;5.70;2.00;;;;;;;;;;5067194;28;20051;-35
2023/06/29 09:12:55;;;;;;;7.07;2.30;;;;;;;;;;5069758;28;20016;-35
2023/06/29 09:15:25;;;;;;;8.30;2.22;;;;;;;;;;5064290;28;20029;-36
2023/06/29 09:17:54;;;;;;;6.57;3.45;;;;;;;;;;5071146;28;20020;-34
2023/06/29 09:20:19;;;;;;;4.10;1.80;;;;;;;;;;5066248;28;20110;-38
2023/06/29 09:22:48;;;;;;;4.68;1.92;;;;;;;;;;5067255;28;20017;-36
2023/06/29 09:25:13;;;;;;;6.97;1.88;;;;;;;;;;5070147;28;20029;-34
2023/06/29 09:27:39;;;;;;;7.78;2.42;;;;;;;;;;5065624;28;20078;-36
2023/06/29 09:30:05;;;;;;;6.72;2.17;;;;;;;;;;5063797;28;20016;-35
2023/06/29 09:32:30;;;;;;;4.53;2.20;;;;;;;;;;5065251;28;20125;-37
2023/06/29 09:35:03;;;;;;;4.40;2.05;;;;;;;;;;5062397;28;20103;-35
2023/06/29 09:37:29;;;;;;;4.93;1.90;;;;;;;;;;5062948;28;20542;-35
2023/06/29 09:40:04;;;;;;;3.85;1.88;;;;;;;;;;5065774;28;20103;-34
2023/06/29 09:42:34;;;;;;;3.40;1.90;;;;;;;;;;5068095;28;20119;-35
2023/06/29 09:45:01;;;;;;;6.07;2.17;;;;;;;;;;5069166;28;20060;-35
2023/06/29 09:47:26;;;;;;;5.60;2.22;;;;;;;;;;5066309;28;20021;-38
2023/06/29 09:49:51;;;;;;;3.10;1.90;;;;;;;;;;5065268;28;20083;-35
2023/06/29 09:52:17;;;;;;;5.10;1.80;;;;;;;;;;5059824;28;20100;-37
2023/06/29 09:54:43;;;;;;;3.03;1.63;;;;;;;;;;5058320;28;20036;-39
2023/06/29 09:57:10;;;;;;;7.40;2.95;;;;;;;;;;5067507;28;20446;-35
2023/06/29 09:59:39;;;;;;;4.43;2.45;;;;;;;;;;5063115;28;20425;-35
2023/06/29 10:02:06;;;;;;;5.65;2.00;;;;;;;;;;5059236;28;20025;-35
2023/06/29 10:04:31;;;;;;;6.05;2.03;;;;;;;;;;5064175;28;21875;-35
2023/06/29 10:07:01;;;;;;;5.20;2.10;;;;;;;;;;5060888;28;20033;-35
2023/06/29 10:09:27;;;;;;;5.03;1.77;;;;;;;;;;5055839;28;20305;-36
2023/06/29 10:11:53;;;;;;;5.07;1.85;;;;;;;;;;5052651;28;20028;-37
2023/06/29 10:14:19;;;;;;;5.53;1.73;;;;;;;;;;5060014;28;20024;-35
2023/06/29 10:16:45;;;;;;;5.13;2.13;;;;;;;;;;5059555;28;20024;-35
2023/06/29 10:19:18;;;;;;;3.90;1.92;;;;;;;;;;5057953;28;20021;-36
2023/06/29 10:21:44;;;;;;;3.92;1.60;;;;;;;;;;5063751;28;20554;-36
2023/06/29 10:24:11;;;;;;;4.90;1.70;;;;;;;;;;5063131;28;20103;-36
2023/06/29 10:26:37;;;;;;;7.00;2.50;;;;;;;;;;5060101;28;20486;-36
2023/06/29 10:29:02;;;;;;;5.05;2.05;;;;;;;;;;5064005;28;20103;-36
2023/06/29 10:31:32;;;;;;;6.15;1.83;;;;;;;;;;5063740;28;20132;-37
2023/06/29 10:33:58;;;;;;;4.07;1.48;;;;;;;;;;5061237;28;20017;-37
2023/06/29 10:36:23;;;;;;;4.05;1.60;;;;;;;;;;5060323;28;20036;-34
2023/06/29 10:38:50;;;;;;;2.42;1.50;;;;;;;;;;5067980;28;20040;-35
2023/06/29 10:41:28;;;;;;;4.72;1.33;;;;;;;;;;5063340;28;20012;-35
2023/06/29 10:44:00;;;;;;;4.35;1.75;;;;;;;;;;5066939;28;20009;-33
2023/06/29 10:46:53;;;;;;;3.33;1.67;;;;;;;;;;5067688;28;20028;-38
2023/06/29 10:49:22;;;;;;;7.40;2.10;;;;;;;;;;5065301;28;20153;-37
2023/06/29 10:51:52;;;;;;;3.58;1.20;;;;;;;;;;5062880;28;20418;-37
2023/06/29 10:54:20;;;;;;;2.00;1.27;;;;;;;;;;5065202;28;20031;-37
2023/06/29 10:56:59;;;;;;;2.47;1.33;;;;;;;;;;5058527;28;20425;-38
2023/06/29 10:59:25;;;;;;;2.60;1.33;;;;;;;;;;5054287;28;20025;-37
2023/06/29 11:01:50;;;;;;;3.28;1.38;;;;;;;;;;5053305;28;20036;-36
2023/06/29 11:04:16;;;;;;;2.88;1.30;;;;;;;;;;5054075;28;20312;-38
2023/06/29 11:06:41;;;;;;;2.60;1.40;;;;;;;;;;5059535;28;20115;-37
2023/06/29 11:09:13;;;;;;;2.97;1.40;;;;;;;;;;5060602;28;20138;-38
2023/06/29 11:11:39;;;;;;;2.38;1.15;;;;;;;;;;5060755;28;20682;-36
2023/06/29 11:14:04;;;;;;;3.90;1.50;;;;;;;;;;5061402;28;20024;-37
2023/06/29 11:16:31;;;;;;;3.83;1.48;;;;;;;;;;5059444;28;20103;-36
2023/06/29 11:18:56;;;;;;;2.42;1.48;;;;;;;;;;5057030;28;20031;-37
2023/06/29 11:21:24;;;;;;;7.95;1.75;;;;;;;;;;5034227;28;20033;-37
2023/06/29 11:23:50;;;;;;;3.28;1.25;;;;;;;;;;5057511;28;20682;-37
2023/06/29 11:26:16;;;;;;;3.45;1.42;;;;;;;;;;5052521;28;20020;-37
2023/06/29 11:28:41;;;;;;;5.50;1.45;;;;;;;;;;5058614;28;20563;-37
2023/06/29 11:31:07;;;;;;;2.30;1.15;;;;;;;;;;5051494;28;20507;-37
2023/06/29 11:33:32;;;;;;;3.15;1.50;;;;;;;;;;5060148;28;20032;-41
2023/06/29 11:35:57;;;;;;;1.60;1.00;;;;;;;;;;5055648;28;20043;-38
2023/06/29 11:38:22;;;;;;;2.90;1.60;;;;;;;;;;5059208;28;20035;-34
2023/06/29 11:40:48;;;;;;;2.50;1.20;;;;;;;;;;5051639;28;20414;-36
2023/06/29 11:43:14;;;;;;;4.20;1.60;;;;;;;;;;5052189;28;20301;-34
2023/06/29 11:45:40;;;;;;;4.53;1.33;;;;;;;;;;5056440;28;20486;-34
2023/06/29 11:48:05;;;;;;;2.90;1.33;;;;;;;;;;5054984;28;20024;-35
2023/06/29 11:50:32;;;;;;;3.88;1.42;;;;;;;;;;5065058;28;20442;-37
2023/06/29 11:52:57;;;;;;;5.00;1.50;;;;;;;;;;5064229;28;20412;-34
2023/06/29 11:55:23;;;;;;;3.22;1.45;;;;;;;;;;5061733;28;20073;-34
2023/06/29 11:57:50;;;;;;;4.07;1.38;;;;;;;;;;5059916;28;20020;-35
2023/06/29 12:00:16;;;;;;;2.05;1.13;;;;;;;;;;5062484;28;20043;-34
2023/06/29 12:02:44;;;;;;;3.30;1.45;;;;;;;;;;5062416;28;20028;-38
2023/06/29 12:05:09;;;;;;;3.80;1.40;;;;;;;;;;5062120;28;20029;-36
2023/06/29 12:07:36;;;;;;;5.30;1.25;;;;;;;;;;5059859;28;20390;-34
2023/06/29 12:10:06;;;;;;;4.68;1.52;;;;;;;;;;5060979;28;20605;-35
2023/06/29 12:12:35;;;;;;;3.10;1.10;;;;;;;;;;5055717;28;20507;-37
2023/06/29 12:15:12;;;;;;;5.68;1.48;;;;;;;;;;5058565;28;20021;-35
2023/06/29 12:17:38;;;;;;;4.57;1.30;;;;;;;;;;5058758;28;20020;-36
2023/06/29 12:20:10;;;;;;;4.63;1.35;;;;;;;;;;5060963;28;20035;-34
2023/06/29 12:22:36;;;;;;;2.50;1.40;;;;;;;;;;5065974;28;20020;-37
2023/06/29 12:25:02;;;;;;;3.75;1.50;;;;;;;;;;5070402;28;20085;-35
2023/06/29 12:27:27;;;;;;;4.05;1.50;;;;;;;;;;5065316;28;20029;-36
2023/06/29 12:29:52;;;;;;;5.03;1.70;;;;;;;;;;5061553;28;20088;-35
2023/06/29 12:32:18;;;;;;;7.13;1.50;;;;;;;;;;5065099;28;20029;-35
2023/06/29 12:34:43;;;;;;;2.80;1.30;;;;;;;;;;5067359;28;20032;-35
2023/06/29 12:37:08;;;;;;;3.97;1.58;;;;;;;;;;5066544;28;20131;-36
2023/06/29 12:39:33;;;;;;;3.77;1.70;;;;;;;;;;5060746;28;20052;-35
2023/06/29 12:42:00;;;;;;;3.57;1.77;;;;;;;;;;5061678;28;20773;-34
2023/06/29 12:44:26;;;;;;;7.25;3.13;;;;;;;;;;5059163;28;20539;-38
2023/06/29 12:46:51;;;;;;;3.72;1.48;;;;;;;;;;5064497;28;20024;-36
2023/06/29 12:49:16;;;;;;;3.67;1.57;;;;;;;;;;5060939;28;20052;-37
2023/06/29 12:51:42;;;;;;;3.60;1.20;;;;;;;;;;5060237;28;20028;-35
2023/06/29 12:54:09;;;;;;;3.47;1.10;;;;;;;;;;5042712;28;21452;-36
2023/06/29 12:56:34;;;;;;;5.07;1.45;;;;;;;;;;5062647;28;20028;-35
2023/06/29 12:58:59;;;;;;;5.37;1.43;;;;;;;;;;5055485;28;20027;-35
2023/06/29 13:01:25;;;;;;;3.43;1.17;;;;;;;;;;5063921;28;20285;-36
2023/06/29 13:03:50;;;;;;;2.53;1.35;;;;;;;;;;5053504;28;20036;-38
2023/06/29 13:06:15;;;;;;;4.77;1.50;;;;;;;;;;5058896;28;20024;-38
2023/06/29 13:08:41;;;;;;;3.03;1.30;;;;;;;;;;5058098;28;20585;-37
2023/06/29 13:11:06;;;;;;;4.47;1.40;;;;;;;;;;5053808;28;20028;-37
2023/06/29 13:13:31;;;;;;;4.73;1.63;;;;;;;;;;5054338;28;20037;-37
2023/06/29 13:15:56;;;;;;;2.90;1.20;;;;;;;;;;5057231;28;20275;-37
2023/06/29 13:18:22;;;;;;;1.80;1.00;;;;;;;;;;5061125;28;20048;-38
2023/06/29 13:20:47;;;;;;;1.80;1.00;;;;;;;;;;5057050;28;20086;-36
2023/06/29 13:23:12;;;;;;;3.80;1.40;;;;;;;;;;5055469;28;20343;-37
2023/06/29 13:25:38;;;;;;;2.43;1.00;;;;;;;;;;5057290;28;20025;-36
2023/06/29 13:28:03;;;;;;;2.15;1.02;;;;;;;;;;5051894;28;20937;-37
2023/06/29 13:30:28;;;;;;;4.57;1.30;;;;;;;;;;5053445;28;20097;-38
2023/06/29 13:32:54;;;;;;;4.00;1.40;;;;;;;;;;5054297;28;20029;-37
2023/06/29 13:35:19;;;;;;;2.97;1.70;;;;;;;;;;5054756;28;20283;-39
2023/06/29 13:37:44;;;;;;;3.00;1.58;;;;;;;;;;5059340;28;20023;-37
2023/06/29 13:40:10;;;;;;;4.10;2.10;;;;;;;;;;5052289;28;20021;-39
2023/06/29 13:42:35;;;;;;;4.53;2.08;;;;;;;;;;5051995;28;20078;-37
2023/06/29 13:45:01;;;;;;;5.60;2.20;;;;;;;;;;5060668;28;20042;-36
2023/06/29 13:47:26;;;;;;;3.75;2.13;;;;;;;;;;5058008;28;20843;-37
2023/06/29 13:49:52;;;;;;;5.20;2.05;;;;;;;;;;5055641;28;20040;-37
2023/06/29 13:52:17;;;;;;;2.40;1.60;;;;;;;;;;5056641;28;20028;-38
2023/06/29 13:54:43;;;;;;;3.03;1.80;;;;;;;;;;5056876;28;20033;-39
2023/06/29 13:57:09;;;;;;;3.67;2.00;;;;;;;;;;5062600;28;20044;-37
2023/06/29 13:59:34;;;;;;;4.10;1.55;;;;;;;;;;5058100;28;20162;-37
2023/06/29 14:02:00;;;;;;;4.37;2.80;;;;;;;;;;5060374;28;20031;-37
2023/06/29 14:04:26;;;;;;;4.40;2.90;;;;;;;;;;5051326;28;20040;-38
2023/06/29 14:06:51;;;;;;;7.38;2.55;;;;;;;;;;5044300;28;20036;-37
2023/06/29 14:09:17;;;;;;;5.53;2.22;;;;;;;;;;5049754;28;20039;-37
2023/06/29 14:11:42;;;;;;;7.28;2.13;;;;;;;;;;5053931;28;20114;-37
2023/06/29 14:14:07;;;;;;;4.67;2.47;;;;;;;;;;5052352;28;20047;-36
2023/06/29 14:16:33;;;;;;;3.97;2.27;;;;;;;;;;5056395;28;20301;-37
2023/06/29 14:18:58;;;;;;;6.23;2.93;;;;;;;;;;5062994;28;20282;-36
2023/06/29 14:21:24;;;;;;;5.35;2.30;;;;;;;;;;5054337;28;20278;-37
2023/06/29 14:23:49;;;;;;;3.28;2.17;;;;;;;;;;5051067;28;20024;-35
2023/06/29 14:26:15;;;;;;;4.22;2.42;;;;;;;;;;5059193;28;20024;-38
2023/06/29 14:28:40;;;;;;;7.25;2.33;;;;;;;;;;5060437;28;20504;-36
2023/06/29 14:31:06;;;;;;;4.90;2.60;;;;;;;;;;5057729;28;20048;-38
2023/06/29 14:33:33;;;;;;;4.72;2.50;;;;;;;;;;5054063;28;20111;-37
2023/06/29 14:35:58;;;;;;;6.70;2.40;;;;;;;;;;5059634;28;20024;-37
2023/06/29 14:38:23;;;;;;;8.43;5.20;;;;;;;;;;5053225;28;20024;-38
2023/06/29 14:40:49;;;;;;;7.00;2.83;;;;;;;;;;5051359;28;20287;-36
2023/06/29 14:43:14;;;;;;;3.75;2.88;;;;;;;;;;5051271;28;20270;-37